Aérodrome :
LOGIN :

S'inscrire | Disclaimer

   EN    FR    IT 

 










Légende :    VFR   VFR Marginal   IFR   IFR Intensif   IFR Très Intensif
Visi : 
Plafond : 
>= 8 km
>= 3000ft
5 à 8 km
1000 à 3000 ft
1500m à 5 km
500 à 1000 ft
800 à 1500m
200 à 500 ft
< 800m
< 200 ft
Symboles :   Orages  Brouillard  Fortes neiges  Fortes précipitations  Vent > 20 kt
SIGMETs :   Divers  Orages  Givrage  Turbulence  Onde Orograph.  Cendres Volcan.







- Altitude de l'aérodrome : 458 ft
- Voir les cartes d'approche


LFSI - St-Dizier

DERNIER METAR :
  • 270400Z AUTO 23005KT 9999 FEW021 BKN029 BKN036 14/12 Q1012

METARs EXPIRÉS :
  • 270330Z AUTO 23006KT 9999 BKN020 OVC034 14/12 Q1012
  • 270300Z AUTO 23004KT 9999 OVC023 14/12 Q1013
  • 270230Z AUTO 23004KT 9999 BKN025 OVC032 14/11 Q1013
  • 270200Z AUTO 22004KT 9999 BKN030 BKN037 OVC047 15/11 Q1013
  • 270130Z AUTO 22003KT 180V250 9999 FEW034 OVC047 15/11 Q1013

TAF TAF LFSI
Valide du 27 à 03h jusqu'au 28 à 03h UTC


270200Z 2703/2803 25005KT 9999 BKN030 BKN045
TEMPO 2706/2713 4000 SHRA BKN004 BKN010TCU BKN030
TEMPO 2713/2721 4000 SHRA BKN015TCU BKN050
BECMG 2721/2723 NSW BKN040
Pas de NOTAMs connus pour ce terrain.



MET'MAP, la Météo Aéronautique d'un coup d'oeil ! - Copyright ORBIFLY Décembre 2007 - Disclaimer

ORBIFLY MET'MAP TEAM :

Programmation & Développement : Alexandra Zaïnal
Conception & Développement : Baudouin d'Aumeries
Co-Programmation & Développement : Marc-Olivier Méhu
Soutien technique & logistique : Manuel Goepfert

Contact : metmap@orbifly.com




SOURCES & CREDITS :

   NOAA